sensor_id;sensor_type;location;lat;lon;timestamp;P1;durP1;ratioP1;P2;durP2;ratioP2
50519;SDS011;36468;44.098;3.078;2023-04-24T00:00:11;28.30;;;5.32;;
50519;SDS011;36468;44.098;3.078;2023-04-24T00:02:39;29.48;;;5.32;;
50519;SDS011;36468;44.098;3.078;2023-04-24T00:05:06;26.33;;;5.32;;
50519;SDS011;36468;44.098;3.078;2023-04-24T00:07:32;32.10;;;5.57;;
50519;SDS011;36468;44.098;3.078;2023-04-24T00:09:59;28.40;;;4.82;;
50519;SDS011;36468;44.098;3.078;2023-04-24T00:12:25;26.60;;;5.57;;
50519;SDS011;36468;44.098;3.078;2023-04-24T00:14:52;29.08;;;5.13;;
50519;SDS011;36468;44.098;3.078;2023-04-24T00:17:18;28.20;;;5.35;;
50519;SDS011;36468;44.098;3.078;2023-04-24T00:19:47;35.80;;;5.68;;
50519;SDS011;36468;44.098;3.078;2023-04-24T00:22:15;23.70;;;4.88;;
50519;SDS011;36468;44.098;3.078;2023-04-24T00:24:41;31.60;;;5.32;;
50519;SDS011;36468;44.098;3.078;2023-04-24T00:27:07;35.05;;;5.20;;
50519;SDS011;36468;44.098;3.078;2023-04-24T00:29:33;32.72;;;5.65;;
50519;SDS011;36468;44.098;3.078;2023-04-24T00:31:59;26.98;;;5.32;;
50519;SDS011;36468;44.098;3.078;2023-04-24T00:34:25;28.98;;;5.78;;
50519;SDS011;36468;44.098;3.078;2023-04-24T00:36:51;30.08;;;5.05;;
50519;SDS011;36468;44.098;3.078;2023-04-24T00:39:20;28.92;;;4.65;;
50519;SDS011;36468;44.098;3.078;2023-04-24T00:41:46;33.50;;;4.88;;
50519;SDS011;36468;44.098;3.078;2023-04-24T00:44:13;28.30;;;5.45;;
50519;SDS011;36468;44.098;3.078;2023-04-24T00:46:39;32.53;;;4.93;;
50519;SDS011;36468;44.098;3.078;2023-04-24T00:49:05;32.25;;;4.55;;
50519;SDS011;36468;44.098;3.078;2023-04-24T00:51:31;19.90;;;4.40;;
50519;SDS011;36468;44.098;3.078;2023-04-24T00:53:58;22.35;;;4.53;;
50519;SDS011;36468;44.098;3.078;2023-04-24T00:56:24;24.25;;;4.32;;
50519;SDS011;36468;44.098;3.078;2023-04-24T00:58:51;26.58;;;4.72;;
50519;SDS011;36468;44.098;3.078;2023-04-24T01:01:18;26.85;;;4.25;;
50519;SDS011;36468;44.098;3.078;2023-04-24T01:03:45;27.38;;;5.22;;
50519;SDS011;36468;44.098;3.078;2023-04-24T01:06:12;20.77;;;4.97;;
50519;SDS011;36468;44.098;3.078;2023-04-24T01:08:38;23.70;;;4.53;;
50519;SDS011;36468;44.098;3.078;2023-04-24T01:11:05;23.05;;;4.28;;
50519;SDS011;36468;44.098;3.078;2023-04-24T01:13:32;29.73;;;4.72;;
50519;SDS011;36468;44.098;3.078;2023-04-24T01:15:58;21.10;;;4.45;;
50519;SDS011;36468;44.098;3.078;2023-04-24T01:18:25;33.72;;;5.38;;
50519;SDS011;36468;44.098;3.078;2023-04-24T01:20:53;33.65;;;4.93;;
50519;SDS011;36468;44.098;3.078;2023-04-24T01:23:19;29.45;;;4.68;;
50519;SDS011;36468;44.098;3.078;2023-04-24T01:25:45;29.25;;;4.85;;
50519;SDS011;36468;44.098;3.078;2023-04-24T01:28:12;28.23;;;5.28;;
50519;SDS011;36468;44.098;3.078;2023-04-24T01:30:39;31.52;;;5.00;;
50519;SDS011;36468;44.098;3.078;2023-04-24T01:33:05;35.35;;;5.65;;
50519;SDS011;36468;44.098;3.078;2023-04-24T01:35:31;33.65;;;5.22;;
50519;SDS011;36468;44.098;3.078;2023-04-24T01:37:57;33.97;;;4.82;;
50519;SDS011;36468;44.098;3.078;2023-04-24T01:40:24;29.58;;;5.15;;
50519;SDS011;36468;44.098;3.078;2023-04-24T01:42:50;30.77;;;4.85;;
50519;SDS011;36468;44.098;3.078;2023-04-24T01:45:16;35.45;;;5.75;;
50519;SDS011;36468;44.098;3.078;2023-04-24T01:47:42;26.08;;;4.85;;
50519;SDS011;36468;44.098;3.078;2023-04-24T01:50:09;28.45;;;4.53;;
50519;SDS011;36468;44.098;3.078;2023-04-24T01:52:35;28.40;;;4.85;;
50519;SDS011;36468;44.098;3.078;2023-04-24T01:55:02;32.85;;;5.25;;
50519;SDS011;36468;44.098;3.078;2023-04-24T01:57:29;30.33;;;4.25;;
50519;SDS011;36468;44.098;3.078;2023-04-24T01:59:55;30.52;;;4.53;;
50519;SDS011;36468;44.098;3.078;2023-04-24T02:02:21;27.50;;;4.40;;
50519;SDS011;36468;44.098;3.078;2023-04-24T02:04:49;34.42;;;4.88;;
50519;SDS011;36468;44.098;3.078;2023-04-24T02:07:15;29.75;;;4.40;;
50519;SDS011;36468;44.098;3.078;2023-04-24T02:09:41;22.27;;;3.70;;
50519;SDS011;36468;44.098;3.078;2023-04-24T02:12:09;30.25;;;4.28;;
50519;SDS011;36468;44.098;3.078;2023-04-24T02:14:35;24.48;;;4.13;;
50519;SDS011;36468;44.098;3.078;2023-04-24T02:17:01;29.27;;;4.05;;
50519;SDS011;36468;44.098;3.078;2023-04-24T02:19:27;29.90;;;3.90;;
50519;SDS011;36468;44.098;3.078;2023-04-24T02:21:53;26.83;;;4.45;;
50519;SDS011;36468;44.098;3.078;2023-04-24T02:24:19;27.52;;;4.10;;
50519;SDS011;36468;44.098;3.078;2023-04-24T02:26:45;20.02;;;3.95;;
50519;SDS011;36468;44.098;3.078;2023-04-24T02:29:11;25.23;;;4.00;;
50519;SDS011;36468;44.098;3.078;2023-04-24T02:31:37;28.20;;;4.13;;
50519;SDS011;36468;44.098;3.078;2023-04-24T02:34:03;28.02;;;4.15;;
50519;SDS011;36468;44.098;3.078;2023-04-24T02:36:29;27.27;;;4.00;;
50519;SDS011;36468;44.098;3.078;2023-04-24T02:38:56;25.13;;;4.18;;
50519;SDS011;36468;44.098;3.078;2023-04-24T02:41:22;24.95;;;4.03;;
50519;SDS011;36468;44.098;3.078;2023-04-24T02:43:48;27.35;;;3.97;;
50519;SDS011;36468;44.098;3.078;2023-04-24T02:46:14;25.48;;;3.65;;
50519;SDS011;36468;44.098;3.078;2023-04-24T02:48:40;22.95;;;3.63;;
50519;SDS011;36468;44.098;3.078;2023-04-24T02:51:06;22.38;;;3.85;;
50519;SDS011;36468;44.098;3.078;2023-04-24T02:53:33;34.50;;;4.75;;
50519;SDS011;36468;44.098;3.078;2023-04-24T02:55:59;31.60;;;5.03;;
50519;SDS011;36468;44.098;3.078;2023-04-24T02:58:25;28.58;;;4.70;;
50519;SDS011;36468;44.098;3.078;2023-04-24T03:00:54;27.88;;;4.63;;
50519;SDS011;36468;44.098;3.078;2023-04-24T03:03:21;21.33;;;4.53;;
50519;SDS011;36468;44.098;3.078;2023-04-24T03:05:47;33.00;;;5.38;;
50519;SDS011;36468;44.098;3.078;2023-04-24T03:08:13;30.48;;;4.95;;
50519;SDS011;36468;44.098;3.078;2023-04-24T03:10:39;26.25;;;4.78;;
50519;SDS011;36468;44.098;3.078;2023-04-24T03:13:05;17.13;;;4.68;;
50519;SDS011;36468;44.098;3.078;2023-04-24T03:15:31;24.45;;;4.68;;
50519;SDS011;36468;44.098;3.078;2023-04-24T03:17:57;21.80;;;4.18;;
50519;SDS011;36468;44.098;3.078;2023-04-24T03:20:23;24.40;;;4.82;;
50519;SDS011;36468;44.098;3.078;2023-04-24T03:22:49;21.98;;;4.70;;
50519;SDS011;36468;44.098;3.078;2023-04-24T03:25:15;25.80;;;4.80;;
50519;SDS011;36468;44.098;3.078;2023-04-24T03:27:42;17.52;;;4.30;;
50519;SDS011;36468;44.098;3.078;2023-04-24T03:30:08;25.25;;;5.07;;
50519;SDS011;36468;44.098;3.078;2023-04-24T03:32:34;19.60;;;4.65;;
50519;SDS011;36468;44.098;3.078;2023-04-24T03:35:00;25.92;;;5.15;;
50519;SDS011;36468;44.098;3.078;2023-04-24T03:37:26;24.80;;;5.00;;
50519;SDS011;36468;44.098;3.078;2023-04-24T03:39:52;22.15;;;5.00;;
50519;SDS011;36468;44.098;3.078;2023-04-24T03:42:18;26.02;;;4.85;;
50519;SDS011;36468;44.098;3.078;2023-04-24T03:44:44;26.35;;;5.05;;
50519;SDS011;36468;44.098;3.078;2023-04-24T03:47:10;23.23;;;5.13;;
50519;SDS011;36468;44.098;3.078;2023-04-24T03:49:36;29.10;;;4.82;;
50519;SDS011;36468;44.098;3.078;2023-04-24T03:52:02;23.08;;;4.63;;
50519;SDS011;36468;44.098;3.078;2023-04-24T03:54:28;27.65;;;4.97;;
50519;SDS011;36468;44.098;3.078;2023-04-24T03:56:54;18.48;;;5.00;;
50519;SDS011;36468;44.098;3.078;2023-04-24T03:59:20;16.92;;;4.95;;
50519;SDS011;36468;44.098;3.078;2023-04-24T04:01:46;26.50;;;5.15;;
50519;SDS011;36468;44.098;3.078;2023-04-24T04:04:13;21.13;;;4.50;;
50519;SDS011;36468;44.098;3.078;2023-04-24T04:06:39;24.70;;;5.43;;
50519;SDS011;36468;44.098;3.078;2023-04-24T04:09:05;27.90;;;5.60;;
50519;SDS011;36468;44.098;3.078;2023-04-24T04:11:32;27.55;;;5.80;;
50519;SDS011;36468;44.098;3.078;2023-04-24T04:13:58;22.25;;;5.75;;
50519;SDS011;36468;44.098;3.078;2023-04-24T04:16:24;22.55;;;5.47;;
50519;SDS011;36468;44.098;3.078;2023-04-24T04:18:50;27.40;;;5.80;;
50519;SDS011;36468;44.098;3.078;2023-04-24T04:21:16;27.20;;;5.43;;
50519;SDS011;36468;44.098;3.078;2023-04-24T04:23:42;26.60;;;5.50;;
50519;SDS011;36468;44.098;3.078;2023-04-24T04:26:08;27.65;;;5.00;;
50519;SDS011;36468;44.098;3.078;2023-04-24T04:28:34;27.35;;;5.03;;
50519;SDS011;36468;44.098;3.078;2023-04-24T04:31:00;24.42;;;5.40;;
50519;SDS011;36468;44.098;3.078;2023-04-24T04:33:32;29.20;;;5.60;;
50519;SDS011;36468;44.098;3.078;2023-04-24T04:36:09;24.80;;;5.85;;
50519;SDS011;36468;44.098;3.078;2023-04-24T04:38:35;23.42;;;5.32;;
50519;SDS011;36468;44.098;3.078;2023-04-24T04:41:02;26.08;;;5.00;;
50519;SDS011;36468;44.098;3.078;2023-04-24T04:43:28;19.75;;;4.60;;
50519;SDS011;36468;44.098;3.078;2023-04-24T04:51:51;26.27;;;4.82;;
50519;SDS011;36468;44.098;3.078;2023-04-24T04:54:37;29.02;;;5.55;;
50519;SDS011;36468;44.098;3.078;2023-04-24T04:57:23;31.23;;;6.38;;
50519;SDS011;36468;44.098;3.078;2023-04-24T05:00:12;27.67;;;5.00;;
50519;SDS011;36468;44.098;3.078;2023-04-24T05:02:44;22.23;;;5.15;;
50519;SDS011;36468;44.098;3.078;2023-04-24T05:05:10;31.35;;;7.60;;
50519;SDS011;36468;44.098;3.078;2023-04-24T05:07:37;29.40;;;5.72;;
50519;SDS011;36468;44.098;3.078;2023-04-24T05:10:03;22.17;;;6.38;;
50519;SDS011;36468;44.098;3.078;2023-04-24T05:12:30;23.23;;;5.45;;
50519;SDS011;36468;44.098;3.078;2023-04-24T05:14:56;27.83;;;5.47;;
50519;SDS011;36468;44.098;3.078;2023-04-24T05:17:22;26.70;;;5.30;;
50519;SDS011;36468;44.098;3.078;2023-04-24T05:19:48;23.50;;;4.88;;
50519;SDS011;36468;44.098;3.078;2023-04-24T05:22:14;18.73;;;4.95;;
50519;SDS011;36468;44.098;3.078;2023-04-24T05:24:40;21.45;;;4.72;;
50519;SDS011;36468;44.098;3.078;2023-04-24T05:27:06;22.30;;;4.68;;
50519;SDS011;36468;44.098;3.078;2023-04-24T05:29:32;22.85;;;5.13;;
50519;SDS011;36468;44.098;3.078;2023-04-24T05:31:58;21.33;;;4.50;;
50519;SDS011;36468;44.098;3.078;2023-04-24T05:34:25;16.63;;;4.07;;
50519;SDS011;36468;44.098;3.078;2023-04-24T05:36:51;20.77;;;4.93;;
50519;SDS011;36468;44.098;3.078;2023-04-24T05:39:18;22.25;;;4.55;;
50519;SDS011;36468;44.098;3.078;2023-04-24T05:41:44;22.17;;;4.97;;
50519;SDS011;36468;44.098;3.078;2023-04-24T05:44:11;19.33;;;4.65;;
50519;SDS011;36468;44.098;3.078;2023-04-24T05:46:37;16.73;;;4.78;;
50519;SDS011;36468;44.098;3.078;2023-04-24T05:49:03;17.05;;;3.50;;
50519;SDS011;36468;44.098;3.078;2023-04-24T05:51:29;14.10;;;3.42;;
50519;SDS011;36468;44.098;3.078;2023-04-24T05:53:56;18.90;;;3.28;;
50519;SDS011;36468;44.098;3.078;2023-04-24T05:56:22;22.08;;;4.70;;
50519;SDS011;36468;44.098;3.078;2023-04-24T05:58:48;18.45;;;3.60;;
50519;SDS011;36468;44.098;3.078;2023-04-24T06:01:15;14.73;;;3.95;;
50519;SDS011;36468;44.098;3.078;2023-04-24T06:03:41;16.90;;;3.40;;
50519;SDS011;36468;44.098;3.078;2023-04-24T06:06:07;16.00;;;3.63;;
50519;SDS011;36468;44.098;3.078;2023-04-24T06:08:34;12.23;;;3.10;;
50519;SDS011;36468;44.098;3.078;2023-04-24T06:11:01;14.02;;;3.95;;
50519;SDS011;36468;44.098;3.078;2023-04-24T06:13:27;20.77;;;3.72;;
50519;SDS011;36468;44.098;3.078;2023-04-24T06:15:53;14.15;;;2.97;;
50519;SDS011;36468;44.098;3.078;2023-04-24T06:18:19;12.63;;;3.17;;
50519;SDS011;36468;44.098;3.078;2023-04-24T06:20:46;11.73;;;2.60;;
50519;SDS011;36468;44.098;3.078;2023-04-24T06:23:12;13.88;;;2.50;;
50519;SDS011;36468;44.098;3.078;2023-04-24T06:25:41;15.70;;;3.33;;
50519;SDS011;36468;44.098;3.078;2023-04-24T06:28:07;20.17;;;3.92;;
50519;SDS011;36468;44.098;3.078;2023-04-24T06:30:33;12.48;;;3.92;;
50519;SDS011;36468;44.098;3.078;2023-04-24T06:32:59;19.35;;;4.72;;
50519;SDS011;36468;44.098;3.078;2023-04-24T06:35:25;18.48;;;4.03;;
50519;SDS011;36468;44.098;3.078;2023-04-24T06:37:51;16.45;;;4.25;;
50519;SDS011;36468;44.098;3.078;2023-04-24T06:40:17;19.73;;;4.20;;
50519;SDS011;36468;44.098;3.078;2023-04-24T06:42:43;19.08;;;3.45;;
50519;SDS011;36468;44.098;3.078;2023-04-24T06:45:10;18.52;;;3.88;;
50519;SDS011;36468;44.098;3.078;2023-04-24T06:47:36;17.60;;;3.00;;
50519;SDS011;36468;44.098;3.078;2023-04-24T06:50:03;9.75;;;2.65;;
50519;SDS011;36468;44.098;3.078;2023-04-24T06:52:29;15.70;;;3.10;;
50519;SDS011;36468;44.098;3.078;2023-04-24T06:55:03;14.18;;;3.08;;
50519;SDS011;36468;44.098;3.078;2023-04-24T06:57:30;13.85;;;2.63;;
50519;SDS011;36468;44.098;3.078;2023-04-24T06:59:56;15.38;;;2.55;;
50519;SDS011;36468;44.098;3.078;2023-04-24T07:02:22;8.57;;;2.55;;
50519;SDS011;36468;44.098;3.078;2023-04-24T07:04:48;9.27;;;2.50;;
50519;SDS011;36468;44.098;3.078;2023-04-24T07:07:14;16.17;;;3.30;;
50519;SDS011;36468;44.098;3.078;2023-04-24T07:09:41;11.43;;;3.08;;
50519;SDS011;36468;44.098;3.078;2023-04-24T07:12:07;13.25;;;2.83;;
50519;SDS011;36468;44.098;3.078;2023-04-24T07:14:35;7.88;;;2.58;;
50519;SDS011;36468;44.098;3.078;2023-04-24T07:17:02;12.48;;;2.08;;
50519;SDS011;36468;44.098;3.078;2023-04-24T07:19:28;8.00;;;2.30;;
50519;SDS011;36468;44.098;3.078;2023-04-24T07:21:54;7.63;;;1.55;;
50519;SDS011;36468;44.098;3.078;2023-04-24T07:24:20;5.78;;;1.27;;
50519;SDS011;36468;44.098;3.078;2023-04-24T07:26:46;8.65;;;1.50;;
50519;SDS011;36468;44.098;3.078;2023-04-24T07:29:12;10.45;;;1.75;;
50519;SDS011;36468;44.098;3.078;2023-04-24T07:31:39;7.40;;;1.23;;
50519;SDS011;36468;44.098;3.078;2023-04-24T07:34:06;8.93;;;1.60;;
50519;SDS011;36468;44.098;3.078;2023-04-24T07:36:32;6.45;;;1.30;;
50519;SDS011;36468;44.098;3.078;2023-04-24T07:38:58;8.90;;;1.05;;
50519;SDS011;36468;44.098;3.078;2023-04-24T07:41:24;8.43;;;1.25;;
50519;SDS011;36468;44.098;3.078;2023-04-24T07:43:52;3.78;;;0.90;;
50519;SDS011;36468;44.098;3.078;2023-04-24T07:46:19;5.35;;;1.25;;
50519;SDS011;36468;44.098;3.078;2023-04-24T07:48:45;5.50;;;1.25;;
50519;SDS011;36468;44.098;3.078;2023-04-24T07:51:13;6.30;;;0.95;;
50519;SDS011;36468;44.098;3.078;2023-04-24T07:53:39;5.47;;;1.05;;
50519;SDS011;36468;44.098;3.078;2023-04-24T07:56:05;9.65;;;1.35;;
50519;SDS011;36468;44.098;3.078;2023-04-24T07:58:31;8.65;;;1.25;;
50519;SDS011;36468;44.098;3.078;2023-04-24T08:00:57;5.18;;;0.95;;
50519;SDS011;36468;44.098;3.078;2023-04-24T08:03:23;6.85;;;1.20;;
50519;SDS011;36468;44.098;3.078;2023-04-24T08:05:50;5.78;;;1.20;;
50519;SDS011;36468;44.098;3.078;2023-04-24T08:08:16;5.43;;;1.20;;
50519;SDS011;36468;44.098;3.078;2023-04-24T08:10:42;12.00;;;1.40;;
50519;SDS011;36468;44.098;3.078;2023-04-24T08:13:08;9.55;;;1.45;;
50519;SDS011;36468;44.098;3.078;2023-04-24T08:15:36;7.15;;;1.10;;
50519;SDS011;36468;44.098;3.078;2023-04-24T08:18:02;5.68;;;1.10;;
50519;SDS011;36468;44.098;3.078;2023-04-24T08:20:28;5.68;;;1.15;;
50519;SDS011;36468;44.098;3.078;2023-04-24T08:22:54;4.75;;;1.08;;
50519;SDS011;36468;44.098;3.078;2023-04-24T08:25:21;9.85;;;1.52;;
50519;SDS011;36468;44.098;3.078;2023-04-24T08:27:49;8.23;;;1.30;;
50519;SDS011;36468;44.098;3.078;2023-04-24T08:30:15;8.27;;;1.20;;
50519;SDS011;36468;44.098;3.078;2023-04-24T08:32:41;3.78;;;0.85;;
50519;SDS011;36468;44.098;3.078;2023-04-24T08:35:08;10.20;;;1.40;;
50519;SDS011;36468;44.098;3.078;2023-04-24T08:37:34;15.40;;;1.90;;
50519;SDS011;36468;44.098;3.078;2023-04-24T08:40:01;8.98;;;1.52;;
50519;SDS011;36468;44.098;3.078;2023-04-24T08:42:31;5.05;;;1.58;;
50519;SDS011;36468;44.098;3.078;2023-04-24T08:44:58;10.82;;;2.33;;
50519;SDS011;36468;44.098;3.078;2023-04-24T08:47:24;18.02;;;2.13;;
50519;SDS011;36468;44.098;3.078;2023-04-24T08:49:51;5.35;;;1.58;;
50519;SDS011;36468;44.098;3.078;2023-04-24T08:52:18;4.93;;;1.63;;
50519;SDS011;36468;44.098;3.078;2023-04-24T08:54:45;5.18;;;1.00;;
50519;SDS011;36468;44.098;3.078;2023-04-24T08:57:11;6.47;;;0.98;;
50519;SDS011;36468;44.098;3.078;2023-04-24T08:59:39;3.85;;;0.82;;
50519;SDS011;36468;44.098;3.078;2023-04-24T09:02:06;3.67;;;1.05;;
50519;SDS011;36468;44.098;3.078;2023-04-24T09:04:35;7.70;;;1.10;;
50519;SDS011;36468;44.098;3.078;2023-04-24T09:07:01;4.15;;;1.10;;
50519;SDS011;36468;44.098;3.078;2023-04-24T09:09:28;3.15;;;0.82;;
50519;SDS011;36468;44.098;3.078;2023-04-24T09:11:56;3.55;;;1.08;;
50519;SDS011;36468;44.098;3.078;2023-04-24T09:14:22;3.67;;;0.95;;
50519;SDS011;36468;44.098;3.078;2023-04-24T09:16:48;4.53;;;1.10;;
50519;SDS011;36468;44.098;3.078;2023-04-24T09:19:15;7.20;;;1.40;;
50519;SDS011;36468;44.098;3.078;2023-04-24T09:21:41;9.13;;;2.03;;
50519;SDS011;36468;44.098;3.078;2023-04-24T09:24:14;22.60;;;2.47;;
50519;SDS011;36468;44.098;3.078;2023-04-24T09:26:42;22.25;;;1.90;;
50519;SDS011;36468;44.098;3.078;2023-04-24T09:29:13;22.05;;;1.90;;
50519;SDS011;36468;44.098;3.078;2023-04-24T09:31:40;23.80;;;2.67;;
50519;SDS011;36468;44.098;3.078;2023-04-24T09:34:06;28.63;;;2.42;;
50519;SDS011;36468;44.098;3.078;2023-04-24T09:39:03;7.88;;;1.75;;
50519;SDS011;36468;44.098;3.078;2023-04-24T09:41:31;4.78;;;1.30;;
50519;SDS011;36468;44.098;3.078;2023-04-24T09:43:58;4.60;;;1.10;;
50519;SDS011;36468;44.098;3.078;2023-04-24T09:46:30;5.55;;;1.20;;
50519;SDS011;36468;44.098;3.078;2023-04-24T09:48:57;5.40;;;1.30;;
50519;SDS011;36468;44.098;3.078;2023-04-24T09:51:35;5.30;;;1.20;;
50519;SDS011;36468;44.098;3.078;2023-04-24T09:54:02;3.67;;;0.93;;
50519;SDS011;36468;44.098;3.078;2023-04-24T09:56:32;4.18;;;1.02;;
50519;SDS011;36468;44.098;3.078;2023-04-24T09:59:05;1.85;;;0.82;;
50519;SDS011;36468;44.098;3.078;2023-04-24T10:01:31;4.50;;;1.40;;
50519;SDS011;36468;44.098;3.078;2023-04-24T10:03:57;6.97;;;1.70;;
50519;SDS011;36468;44.098;3.078;2023-04-24T10:06:29;4.47;;;1.25;;
50519;SDS011;36468;44.098;3.078;2023-04-24T10:08:55;4.00;;;1.00;;
50519;SDS011;36468;44.098;3.078;2023-04-24T10:11:23;4.15;;;1.05;;
50519;SDS011;36468;44.098;3.078;2023-04-24T10:13:50;4.18;;;1.23;;
50519;SDS011;36468;44.098;3.078;2023-04-24T10:16:16;4.82;;;1.15;;
50519;SDS011;36468;44.098;3.078;2023-04-24T10:18:42;3.92;;;1.00;;
50519;SDS011;36468;44.098;3.078;2023-04-24T10:21:08;5.18;;;0.90;;
50519;SDS011;36468;44.098;3.078;2023-04-24T10:23:35;4.75;;;1.08;;
50519;SDS011;36468;44.098;3.078;2023-04-24T10:26:01;3.60;;;0.98;;
50519;SDS011;36468;44.098;3.078;2023-04-24T10:28:27;3.38;;;1.13;;
50519;SDS011;36468;44.098;3.078;2023-04-24T10:30:55;2.47;;;0.90;;
50519;SDS011;36468;44.098;3.078;2023-04-24T10:33:22;3.40;;;1.00;;
50519;SDS011;36468;44.098;3.078;2023-04-24T10:35:48;2.33;;;0.80;;
50519;SDS011;36468;44.098;3.078;2023-04-24T10:38:18;3.80;;;1.10;;
50519;SDS011;36468;44.098;3.078;2023-04-24T10:40:49;2.08;;;1.38;;
50519;SDS011;36468;44.098;3.078;2023-04-24T10:43:16;3.78;;;1.20;;
50519;SDS011;36468;44.098;3.078;2023-04-24T10:45:42;2.45;;;1.08;;
50519;SDS011;36468;44.098;3.078;2023-04-24T10:48:26;4.43;;;1.98;;
50519;SDS011;36468;44.098;3.078;2023-04-24T10:50:52;2.42;;;1.00;;
50519;SDS011;36468;44.098;3.078;2023-04-24T10:53:20;3.22;;;1.25;;
50519;SDS011;36468;44.098;3.078;2023-04-24T10:55:49;3.92;;;1.00;;
50519;SDS011;36468;44.098;3.078;2023-04-24T10:58:16;3.08;;;1.55;;
50519;SDS011;36468;44.098;3.078;2023-04-24T11:00:42;2.38;;;0.88;;
50519;SDS011;36468;44.098;3.078;2023-04-24T11:10:55;2.97;;;0.88;;
50519;SDS011;36468;44.098;3.078;2023-04-24T11:13:22;2.40;;;1.35;;
50519;SDS011;36468;44.098;3.078;2023-04-24T11:18:42;2.35;;;0.98;;
50519;SDS011;36468;44.098;3.078;2023-04-24T11:21:16;4.78;;;1.40;;
50519;SDS011;36468;44.098;3.078;2023-04-24T11:23:42;4.30;;;1.10;;
50519;SDS011;36468;44.098;3.078;2023-04-24T11:26:11;2.97;;;1.00;;
50519;SDS011;36468;44.098;3.078;2023-04-24T11:28:43;4.43;;;1.02;;
50519;SDS011;36468;44.098;3.078;2023-04-24T11:33:54;2.38;;;0.90;;
50519;SDS011;36468;44.098;3.078;2023-04-24T11:36:20;3.00;;;1.08;;
50519;SDS011;36468;44.098;3.078;2023-04-24T11:38:46;15.27;;;2.00;;
50519;SDS011;36468;44.098;3.078;2023-04-24T11:41:13;12.27;;;2.20;;
50519;SDS011;36468;44.098;3.078;2023-04-24T11:43:39;56.70;;;4.18;;
50519;SDS011;36468;44.098;3.078;2023-04-24T11:46:05;11.00;;;1.95;;
50519;SDS011;36468;44.098;3.078;2023-04-24T11:48:34;37.67;;;3.65;;
50519;SDS011;36468;44.098;3.078;2023-04-24T11:51:05;17.67;;;2.10;;
50519;SDS011;36468;44.098;3.078;2023-04-24T11:53:31;11.75;;;1.42;;
50519;SDS011;36468;44.098;3.078;2023-04-24T11:56:02;4.15;;;1.10;;
50519;SDS011;36468;44.098;3.078;2023-04-24T11:58:28;6.10;;;1.90;;
50519;SDS011;36468;44.098;3.078;2023-04-24T12:00:57;7.05;;;1.35;;
50519;SDS011;36468;44.098;3.078;2023-04-24T12:03:24;8.82;;;1.02;;
50519;SDS011;36468;44.098;3.078;2023-04-24T12:05:50;2.70;;;1.10;;
50519;SDS011;36468;44.098;3.078;2023-04-24T12:08:28;4.18;;;1.13;;
50519;SDS011;36468;44.098;3.078;2023-04-24T12:10:54;4.95;;;1.20;;
50519;SDS011;36468;44.098;3.078;2023-04-24T12:13:20;3.15;;;1.00;;
50519;SDS011;36468;44.098;3.078;2023-04-24T12:15:47;5.50;;;1.00;;
50519;SDS011;36468;44.098;3.078;2023-04-24T12:18:13;5.07;;;1.15;;
50519;SDS011;36468;44.098;3.078;2023-04-24T12:20:40;9.15;;;1.70;;
50519;SDS011;36468;44.098;3.078;2023-04-24T12:23:06;2.63;;;1.00;;
50519;SDS011;36468;44.098;3.078;2023-04-24T12:25:32;3.75;;;1.20;;
50519;SDS011;36468;44.098;3.078;2023-04-24T12:30:35;7.55;;;1.20;;
50519;SDS011;36468;44.098;3.078;2023-04-24T12:33:04;7.10;;;1.42;;
50519;SDS011;36468;44.098;3.078;2023-04-24T12:35:31;7.10;;;1.40;;
50519;SDS011;36468;44.098;3.078;2023-04-24T12:38:08;3.88;;;1.30;;
50519;SDS011;36468;44.098;3.078;2023-04-24T12:40:34;8.27;;;1.50;;
50519;SDS011;36468;44.098;3.078;2023-04-24T12:43:00;3.95;;;1.35;;
50519;SDS011;36468;44.098;3.078;2023-04-24T12:45:27;4.43;;;1.60;;
50519;SDS011;36468;44.098;3.078;2023-04-24T12:47:53;6.35;;;1.05;;
50519;SDS011;36468;44.098;3.078;2023-04-24T12:50:20;4.88;;;1.27;;
50519;SDS011;36468;44.098;3.078;2023-04-24T12:52:46;5.20;;;1.05;;
50519;SDS011;36468;44.098;3.078;2023-04-24T12:55:12;3.00;;;1.02;;
50519;SDS011;36468;44.098;3.078;2023-04-24T12:57:38;4.88;;;1.10;;
50519;SDS011;36468;44.098;3.078;2023-04-24T13:00:05;5.75;;;1.30;;
50519;SDS011;36468;44.098;3.078;2023-04-24T13:02:32;3.55;;;1.15;;
50519;SDS011;36468;44.098;3.078;2023-04-24T13:04:59;3.15;;;0.90;;
50519;SDS011;36468;44.098;3.078;2023-04-24T13:07:25;2.35;;;0.90;;
50519;SDS011;36468;44.098;3.078;2023-04-24T13:09:51;3.90;;;1.10;;
50519;SDS011;36468;44.098;3.078;2023-04-24T13:12:18;2.95;;;1.02;;
50519;SDS011;36468;44.098;3.078;2023-04-24T13:14:44;2.65;;;1.00;;
50519;SDS011;36468;44.098;3.078;2023-04-24T13:17:10;2.85;;;1.00;;
50519;SDS011;36468;44.098;3.078;2023-04-24T13:19:38;2.70;;;1.10;;
50519;SDS011;36468;44.098;3.078;2023-04-24T13:22:05;5.70;;;1.25;;
50519;SDS011;36468;44.098;3.078;2023-04-24T13:24:31;4.93;;;1.23;;
50519;SDS011;36468;44.098;3.078;2023-04-24T13:26:58;3.55;;;1.30;;
50519;SDS011;36468;44.098;3.078;2023-04-24T13:29:25;4.10;;;1.35;;
50519;SDS011;36468;44.098;3.078;2023-04-24T13:31:51;5.13;;;1.25;;
50519;SDS011;36468;44.098;3.078;2023-04-24T13:34:19;3.40;;;1.30;;
50519;SDS011;36468;44.098;3.078;2023-04-24T13:36:45;6.82;;;1.58;;
50519;SDS011;36468;44.098;3.078;2023-04-24T13:39:11;4.32;;;1.23;;
50519;SDS011;36468;44.098;3.078;2023-04-24T13:41:37;5.57;;;1.38;;
50519;SDS011;36468;44.098;3.078;2023-04-24T13:44:03;5.68;;;1.48;;
50519;SDS011;36468;44.098;3.078;2023-04-24T13:46:30;4.57;;;1.20;;
50519;SDS011;36468;44.098;3.078;2023-04-24T13:48:56;4.20;;;1.05;;
50519;SDS011;36468;44.098;3.078;2023-04-24T13:51:22;4.18;;;1.10;;
50519;SDS011;36468;44.098;3.078;2023-04-24T13:53:48;4.53;;;1.50;;
50519;SDS011;36468;44.098;3.078;2023-04-24T13:56:14;5.97;;;1.13;;
50519;SDS011;36468;44.098;3.078;2023-04-24T13:58:41;6.78;;;1.15;;
50519;SDS011;36468;44.098;3.078;2023-04-24T14:01:07;3.75;;;1.10;;
50519;SDS011;36468;44.098;3.078;2023-04-24T14:03:33;2.55;;;0.80;;
50519;SDS011;36468;44.098;3.078;2023-04-24T14:05:59;3.47;;;1.23;;
50519;SDS011;36468;44.098;3.078;2023-04-24T14:08:25;6.95;;;1.50;;
50519;SDS011;36468;44.098;3.078;2023-04-24T14:10:51;3.58;;;0.88;;
50519;SDS011;36468;44.098;3.078;2023-04-24T14:13:17;3.58;;;0.90;;
50519;SDS011;36468;44.098;3.078;2023-04-24T14:15:43;4.65;;;2.40;;
50519;SDS011;36468;44.098;3.078;2023-04-24T14:18:09;4.30;;;1.17;;
50519;SDS011;36468;44.098;3.078;2023-04-24T14:20:35;3.33;;;1.17;;
50519;SDS011;36468;44.098;3.078;2023-04-24T14:23:01;3.20;;;1.30;;
50519;SDS011;36468;44.098;3.078;2023-04-24T14:25:28;3.90;;;1.10;;
50519;SDS011;36468;44.098;3.078;2023-04-24T14:27:55;4.20;;;0.98;;
50519;SDS011;36468;44.098;3.078;2023-04-24T14:30:21;3.83;;;1.38;;
50519;SDS011;36468;44.098;3.078;2023-04-24T14:32:47;4.60;;;1.20;;
50519;SDS011;36468;44.098;3.078;2023-04-24T14:35:13;7.00;;;1.40;;
50519;SDS011;36468;44.098;3.078;2023-04-24T14:37:39;12.60;;;6.05;;
50519;SDS011;36468;44.098;3.078;2023-04-24T14:40:06;12.50;;;5.90;;
50519;SDS011;36468;44.098;3.078;2023-04-24T14:42:33;3.92;;;1.88;;
50519;SDS011;36468;44.098;3.078;2023-04-24T14:45:00;4.05;;;1.42;;
50519;SDS011;36468;44.098;3.078;2023-04-24T14:47:26;7.15;;;1.35;;
50519;SDS011;36468;44.098;3.078;2023-04-24T14:49:52;8.48;;;3.28;;
50519;SDS011;36468;44.098;3.078;2023-04-24T14:52:18;6.25;;;3.50;;
50519;SDS011;36468;44.098;3.078;2023-04-24T14:54:45;10.80;;;4.75;;
50519;SDS011;36468;44.098;3.078;2023-04-24T14:57:11;3.75;;;1.30;;
50519;SDS011;36468;44.098;3.078;2023-04-24T14:59:37;6.35;;;3.00;;
50519;SDS011;36468;44.098;3.078;2023-04-24T15:02:03;6.50;;;2.00;;